Trance — V7QT3 — position and weather

sailwx.info

Track history (hours):
 
Tides and Currents Weather Stations Pressure Air Temp Water Temp Dewpoint Dewpoint Depression Visibility Wind Speed Wind Dir Waves Ship Positions

Trance

Last reported at 2017-Sep-20 18:06 UTC. Time now 2017-Sep-21 16:13 UTC.
Position N 39°56' E 025°57'.

Length 180 m; draft 6.7 m.

Type: Tanker. MMSI: 538001433.

Date/timePositionNaut miles runAvg speedWind from/ knotsBaromVisibWave heightAir tempDewpointWater temp
2017-Sep-20 18:06N 39°56' E 025°57'1 9.6
2017-Sep-20 18:00N 39°55' E 025°56'1210.0
2017-Sep-20 16:46N 39°44' E 025°50'0 0.3
2017-Sep-20 16:30N 39°44' E 025°50'0 0.3
2017-Sep-20 16:00N 39°43' E 025°50'6 7.1
2017-Sep-20 15:12N 39°40' E 025°56'211.0
2017-Sep-20 15:00N 39°41' E 025°59'2 1.6
2017-Sep-20 13:30N 39°41' E 026°02'2 1.9
2017-Sep-20 12:29N 39°41' E 025°59'8711.5
2017-Sep-20 04:57N 38°16' E 025°42'4014.0
2017-Sep-20 02:04N 37°36' E 025°48'313.7
2017-Sep-20 01:52N 37°33' E 025°49'513.7
2017-Sep-20 01:30N 37°28' E 025°50'612.9
2017-Sep-20 01:01N 37°23' E 025°55'  
2017-Sep-14 16:10N 37°23' E 025°55'212.2
2017-Sep-14 16:01N 37°24' E 025°53'611.1
2017-Sep-14 15:30N 37°29' E 025°49'713.1
2017-Sep-14 15:00N 37°35' E 025°48'713.2
2017-Sep-14 14:30N 37°42' E 025°47'13912.4
2017-Sep-14 03:20N 40°00' E 025°59'413.2
2017-Sep-14 03:00N 40°01' E 026°04'168 3.6
2017-Sep-12 04:14N 41°29' E 029°12'1 0.8
2017-Sep-12 03:32N 41°29' E 029°11'0 1.3
2017-Sep-12 03:30N 41°29' E 029°11'2 4.1
2017-Sep-12 03:00N 41°29' E 029°14'611.9
2017-Sep-12 02:30N 41°29' E 029°22'612.0
2017-Sep-12 02:00N 41°30' E 029°30'612.1
2017-Sep-12 01:30N 41°33' E 029°37'612.1
2017-Sep-12 01:00N 41°35' E 029°45'612.2
2017-Sep-12 00:30N 41°38' E 029°52'612.3
2017-Sep-12 00:00N 41°40' E 029°60'612.3
2017-Sep-11 23:30N 41°43' E 030°07'612.4
2017-Sep-11 23:00N 41°46' E 030°14'612.4
2017-Sep-11 22:30N 41°49' E 030°22'612.6
2017-Sep-11 22:00N 41°52' E 030°29'612.7
2017-Sep-11 21:30N 41°54' E 030°37'612.8
2017-Sep-11 21:00N 41°57' E 030°44'612.9
2017-Sep-11 20:30N 42°00' E 030°52'612.9
2017-Sep-11 20:00N 42°03' E 030°60'612.7
2017-Sep-11 19:30N 42°06' E 031°08'612.7
2017-Sep-11 19:00N 42°09' E 031°15'612.5
2017-Sep-11 18:30N 42°12' E 031°23'612.6
2017-Sep-11 18:00N 42°15' E 031°30'712.5
2017-Sep-11 17:28N 42°18' E 031°38'612.6
2017-Sep-11 17:00N 42°20' E 031°45'612.7
2017-Sep-11 16:30N 42°23' E 031°53'612.9
2017-Sep-11 16:00N 42°26' E 032°01'613.0
2017-Sep-11 15:30N 42°29' E 032°09'713.0
2017-Sep-11 15:00N 42°32' E 032°17'713.1
2017-Sep-11 14:30N 42°35' E 032°24'713.1
2017-Sep-11 14:00N 42°38' E 032°32'713.0
2017-Sep-11 13:30N 42°41' E 032°40'612.8
2017-Sep-11 13:00N 42°44' E 032°48'612.6
2017-Sep-11 12:30N 42°47' E 032°56'612.5
2017-Sep-11 12:00N 42°50' E 033°03'612.5
2017-Sep-11 11:30N 42°53' E 033°11'812.5
2017-Sep-11 10:51N 42°56' E 033°21'1712.3
2017-Sep-11 09:28N 43°05' E 033°41'612.2
2017-Sep-11 09:00N 43°07' E 033°48'612.4
2017-Sep-11 08:30N 43°09' E 033°56'612.6
2017-Sep-11 08:00N 43°12' E 034°03'612.6
2017-Sep-11 07:30N 43°15' E 034°11'712.6
2017-Sep-11 06:55N 43°18' E 034°20'512.6
2017-Sep-11 06:30N 43°21' E 034°27'612.6
2017-Sep-11 06:00N 43°24' E 034°34'612.7
2017-Sep-11 05:30N 43°26' E 034°42'712.6
2017-Sep-11 04:58N 43°29' E 034°50'712.7
2017-Sep-11 04:26N 43°32' E 034°59'612.7
2017-Sep-11 04:00N 43°35' E 035°05'612.7
2017-Sep-11 03:30N 43°38' E 035°13'612.7
2017-Sep-11 03:00N 43°41' E 035°21'612.8
2017-Sep-11 02:30N 43°44' E 035°29'612.7
2017-Sep-11 02:00N 43°47' E 035°37'612.8
2017-Sep-11 01:30N 43°49' E 035°45'612.7
2017-Sep-11 01:00N 43°52' E 035°52'612.6
2017-Sep-11 00:30N 43°55' E 036°00'612.6
2017-Sep-11 00:00N 43°58' E 036°08'612.6
2017-Sep-10 23:30N 44°01' E 036°16'612.6
2017-Sep-10 23:00N 44°04' E 036°24'612.5
2017-Sep-10 22:30N 44°07' E 036°32'612.7
2017-Sep-10 22:00N 44°09' E 036°39'612.8
2017-Sep-10 21:30N 44°12' E 036°47'612.8
2017-Sep-10 21:00N 44°15' E 036°55'612.8
2017-Sep-10 20:30N 44°19' E 037°03'612.6
2017-Sep-10 20:00N 44°21' E 037°11'3838.7
2017-Sep-10 19:02N 44°34' E 038°01'0 0.0
2017-Sep-10 18:57N 44°34' E 038°01'2250.3
2017-Sep-10 18:30N 44°27' E 037°32'  
Track history (hours):
 
Tides and Currents Weather Stations Pressure Air Temp Water Temp Dewpoint Dewpoint Depression Visibility Wind Speed Wind Dir Waves Ship Positions

Trance

Last reported at 2017-Sep-20 18:06 UTC. Time now 2017-Sep-21 16:13 UTC.
Position N 39°56' E 025°57'.

Length 180 m; draft 6.7 m.

Type: Tanker. MMSI: 538001433.

Date/timePositionNaut miles runAvg speedWind from/ knotsBaromVisibWave heightAir tempDewpointWater temp
2017-Sep-20 18:06N 39°56' E 025°57'1 9.6
2017-Sep-20 18:00N 39°55' E 025°56'1210.0
2017-Sep-20 16:46N 39°44' E 025°50'0 0.3
2017-Sep-20 16:30N 39°44' E 025°50'0 0.3
2017-Sep-20 16:00N 39°43' E 025°50'6 7.1
2017-Sep-20 15:12N 39°40' E 025°56'211.0
2017-Sep-20 15:00N 39°41' E 025°59'2 1.6
2017-Sep-20 13:30N 39°41' E 026°02'2 1.9
2017-Sep-20 12:29N 39°41' E 025°59'8711.5
2017-Sep-20 04:57N 38°16' E 025°42'4014.0
2017-Sep-20 02:04N 37°36' E 025°48'313.7
2017-Sep-20 01:52N 37°33' E 025°49'513.7
2017-Sep-20 01:30N 37°28' E 025°50'612.9
2017-Sep-20 01:01N 37°23' E 025°55'  
2017-Sep-14 16:10N 37°23' E 025°55'212.2
2017-Sep-14 16:01N 37°24' E 025°53'611.1
2017-Sep-14 15:30N 37°29' E 025°49'713.1
2017-Sep-14 15:00N 37°35' E 025°48'713.2
2017-Sep-14 14:30N 37°42' E 025°47'13912.4
2017-Sep-14 03:20N 40°00' E 025°59'413.2
2017-Sep-14 03:00N 40°01' E 026°04'168 3.6
2017-Sep-12 04:14N 41°29' E 029°12'1 0.8
2017-Sep-12 03:32N 41°29' E 029°11'0 1.3
2017-Sep-12 03:30N 41°29' E 029°11'2 4.1
2017-Sep-12 03:00N 41°29' E 029°14'611.9
2017-Sep-12 02:30N 41°29' E 029°22'612.0
2017-Sep-12 02:00N 41°30' E 029°30'612.1
2017-Sep-12 01:30N 41°33' E 029°37'612.1
2017-Sep-12 01:00N 41°35' E 029°45'612.2
2017-Sep-12 00:30N 41°38' E 029°52'612.3
2017-Sep-12 00:00N 41°40' E 029°60'612.3
2017-Sep-11 23:30N 41°43' E 030°07'612.4
2017-Sep-11 23:00N 41°46' E 030°14'612.4
2017-Sep-11 22:30N 41°49' E 030°22'612.6
2017-Sep-11 22:00N 41°52' E 030°29'612.7
2017-Sep-11 21:30N 41°54' E 030°37'612.8
2017-Sep-11 21:00N 41°57' E 030°44'612.9
2017-Sep-11 20:30N 42°00' E 030°52'612.9
2017-Sep-11 20:00N 42°03' E 030°60'612.7
2017-Sep-11 19:30N 42°06' E 031°08'612.7
2017-Sep-11 19:00N 42°09' E 031°15'612.5
2017-Sep-11 18:30N 42°12' E 031°23'612.6
2017-Sep-11 18:00N 42°15' E 031°30'712.5
2017-Sep-11 17:28N 42°18' E 031°38'612.6
2017-Sep-11 17:00N 42°20' E 031°45'612.7
2017-Sep-11 16:30N 42°23' E 031°53'612.9
2017-Sep-11 16:00N 42°26' E 032°01'613.0
2017-Sep-11 15:30N 42°29' E 032°09'713.0
2017-Sep-11 15:00N 42°32' E 032°17'713.1
2017-Sep-11 14:30N 42°35' E 032°24'713.1
2017-Sep-11 14:00N 42°38' E 032°32'713.0
2017-Sep-11 13:30N 42°41' E 032°40'612.8
2017-Sep-11 13:00N 42°44' E 032°48'612.6
2017-Sep-11 12:30N 42°47' E 032°56'612.5
2017-Sep-11 12:00N 42°50' E 033°03'612.5
2017-Sep-11 11:30N 42°53' E 033°11'812.5
2017-Sep-11 10:51N 42°56' E 033°21'1712.3
2017-Sep-11 09:28N 43°05' E 033°41'612.2
2017-Sep-11 09:00N 43°07' E 033°48'612.4
2017-Sep-11 08:30N 43°09' E 033°56'612.6
2017-Sep-11 08:00N 43°12' E 034°03'612.6
2017-Sep-11 07:30N 43°15' E 034°11'712.6
2017-Sep-11 06:55N 43°18' E 034°20'512.6
2017-Sep-11 06:30N 43°21' E 034°27'612.6
2017-Sep-11 06:00N 43°24' E 034°34'612.7
2017-Sep-11 05:30N 43°26' E 034°42'712.6
2017-Sep-11 04:58N 43°29' E 034°50'712.7
2017-Sep-11 04:26N 43°32' E 034°59'612.7
2017-Sep-11 04:00N 43°35' E 035°05'612.7
2017-Sep-11 03:30N 43°38' E 035°13'612.7
2017-Sep-11 03:00N 43°41' E 035°21'612.8
2017-Sep-11 02:30N 43°44' E 035°29'612.7
2017-Sep-11 02:00N 43°47' E 035°37'612.8
2017-Sep-11 01:30N 43°49' E 035°45'612.7
2017-Sep-11 01:00N 43°52' E 035°52'612.6
2017-Sep-11 00:30N 43°55' E 036°00'612.6
2017-Sep-11 00:00N 43°58' E 036°08'612.6
2017-Sep-10 23:30N 44°01' E 036°16'612.6
2017-Sep-10 23:00N 44°04' E 036°24'612.5
2017-Sep-10 22:30N 44°07' E 036°32'612.7
2017-Sep-10 22:00N 44°09' E 036°39'612.8
2017-Sep-10 21:30N 44°12' E 036°47'612.8
2017-Sep-10 21:00N 44°15' E 036°55'612.8
2017-Sep-10 20:30N 44°19' E 037°03'612.6
2017-Sep-10 20:00N 44°21' E 037°11'3838.7
2017-Sep-10 19:02N 44°34' E 038°01'0 0.0
2017-Sep-10 18:57N 44°34' E 038°01'2250.3
2017-Sep-10 18:30N 44°27' E 037°32'  

Dump ship's entire track history